6  °C
Temperature
6  °C
  Dewpoint
   Humidity
Temp | Dewpoint | Humidity
11  km/h
Wind Speed
7  mph
Wind Speed
6  kts
Wind Speed
170°
Due South

Wind Speed
Light Rain
Showers
Pressure 987.92 (hPa) - 29.17 (in)
Visibility 6.2 (mi) - 10.0 (km)

Current Conditions
EGTE
Location 6km (3.2mi)
Metar :EGTE 031020Z 17006KT 9999 -RA FEW008 SCT040 06/06 Q0988
Thu 3rd December 10:20 am

Airport
  Metar Aviation API Data Provided by https://www.checkwx.com/ CSS/SVG/PHP scripts by weather34.com © 2015-2020